sensor_id;sensor_type;location;lat;lon;timestamp;P1;durP1;ratioP1;P2;durP2;ratioP2
10761;SDS011;5433;50.862;4.320;2023-03-16T00:00:02;5.78;;;3.95;;
10761;SDS011;5433;50.862;4.320;2023-03-16T00:02:29;5.38;;;3.90;;
10761;SDS011;5433;50.862;4.320;2023-03-16T00:04:55;5.22;;;4.13;;
10761;SDS011;5433;50.862;4.320;2023-03-16T00:07:21;6.35;;;4.10;;
10761;SDS011;5433;50.862;4.320;2023-03-16T00:09:47;5.45;;;3.70;;
10761;SDS011;5433;50.862;4.320;2023-03-16T00:12:14;8.45;;;3.90;;
10761;SDS011;5433;50.862;4.320;2023-03-16T00:14:45;7.07;;;3.78;;
10761;SDS011;5433;50.862;4.320;2023-03-16T00:17:12;4.07;;;3.50;;
10761;SDS011;5433;50.862;4.320;2023-03-16T00:19:43;6.45;;;3.78;;
10761;SDS011;5433;50.862;4.320;2023-03-16T00:22:10;6.68;;;3.50;;
10761;SDS011;5433;50.862;4.320;2023-03-16T00:24:38;4.93;;;3.40;;
10761;SDS011;5433;50.862;4.320;2023-03-16T00:27:08;5.75;;;3.28;;
10761;SDS011;5433;50.862;4.320;2023-03-16T00:29:38;5.82;;;3.30;;
10761;SDS011;5433;50.862;4.320;2023-03-16T00:32:10;5.65;;;3.38;;
10761;SDS011;5433;50.862;4.320;2023-03-16T00:34:36;7.95;;;3.60;;
10761;SDS011;5433;50.862;4.320;2023-03-16T00:37:02;5.72;;;3.20;;
10761;SDS011;5433;50.862;4.320;2023-03-16T00:39:28;4.43;;;3.53;;
10761;SDS011;5433;50.862;4.320;2023-03-16T00:41:59;4.13;;;3.22;;
10761;SDS011;5433;50.862;4.320;2023-03-16T00:44:25;5.85;;;3.30;;
10761;SDS011;5433;50.862;4.320;2023-03-16T00:46:51;4.43;;;3.25;;
10761;SDS011;5433;50.862;4.320;2023-03-16T00:49:17;6.53;;;3.40;;
10761;SDS011;5433;50.862;4.320;2023-03-16T00:51:43;5.60;;;3.28;;
10761;SDS011;5433;50.862;4.320;2023-03-16T00:54:10;4.50;;;3.05;;
10761;SDS011;5433;50.862;4.320;2023-03-16T00:56:36;4.88;;;3.25;;
10761;SDS011;5433;50.862;4.320;2023-03-16T00:59:03;4.80;;;3.20;;
10761;SDS011;5433;50.862;4.320;2023-03-16T01:01:29;5.45;;;2.85;;
10761;SDS011;5433;50.862;4.320;2023-03-16T01:03:56;4.13;;;2.67;;
10761;SDS011;5433;50.862;4.320;2023-03-16T01:06:23;4.68;;;2.90;;
10761;SDS011;5433;50.862;4.320;2023-03-16T01:08:50;5.05;;;2.92;;
10761;SDS011;5433;50.862;4.320;2023-03-16T01:11:17;4.70;;;3.15;;
10761;SDS011;5433;50.862;4.320;2023-03-16T01:13:44;6.13;;;3.00;;
10761;SDS011;5433;50.862;4.320;2023-03-16T01:16:14;5.25;;;3.10;;
10761;SDS011;5433;50.862;4.320;2023-03-16T01:18:40;5.57;;;3.00;;
10761;SDS011;5433;50.862;4.320;2023-03-16T01:21:08;4.10;;;2.60;;
10761;SDS011;5433;50.862;4.320;2023-03-16T01:23:34;5.43;;;2.95;;
10761;SDS011;5433;50.862;4.320;2023-03-16T01:26:01;4.18;;;2.80;;
10761;SDS011;5433;50.862;4.320;2023-03-16T01:28:28;4.70;;;3.10;;
10761;SDS011;5433;50.862;4.320;2023-03-16T01:30:57;4.80;;;2.70;;
10761;SDS011;5433;50.862;4.320;2023-03-16T01:33:25;3.65;;;2.70;;
10761;SDS011;5433;50.862;4.320;2023-03-16T01:35:59;5.43;;;2.60;;
10761;SDS011;5433;50.862;4.320;2023-03-16T01:38:26;4.43;;;2.75;;
10761;SDS011;5433;50.862;4.320;2023-03-16T01:40:53;5.22;;;2.70;;
10761;SDS011;5433;50.862;4.320;2023-03-16T01:43:20;5.00;;;2.95;;
10761;SDS011;5433;50.862;4.320;2023-03-16T01:48:25;4.47;;;2.58;;
10761;SDS011;5433;50.862;4.320;2023-03-16T01:50:51;3.97;;;2.58;;
10761;SDS011;5433;50.862;4.320;2023-03-16T01:53:18;6.18;;;2.25;;
10761;SDS011;5433;50.862;4.320;2023-03-16T01:55:46;4.05;;;2.50;;
10761;SDS011;5433;50.862;4.320;2023-03-16T01:58:12;3.78;;;2.30;;
10761;SDS011;5433;50.862;4.320;2023-03-16T02:00:39;4.68;;;2.40;;
10761;SDS011;5433;50.862;4.320;2023-03-16T02:03:12;4.93;;;2.22;;
10761;SDS011;5433;50.862;4.320;2023-03-16T02:06:01;4.40;;;2.10;;
10761;SDS011;5433;50.862;4.320;2023-03-16T02:08:26;5.63;;;2.50;;
10761;SDS011;5433;50.862;4.320;2023-03-16T02:10:53;4.30;;;2.50;;
10761;SDS011;5433;50.862;4.320;2023-03-16T02:13:20;3.47;;;2.20;;
10761;SDS011;5433;50.862;4.320;2023-03-16T02:15:47;4.85;;;2.20;;
10761;SDS011;5433;50.862;4.320;2023-03-16T02:18:13;5.07;;;2.50;;
10761;SDS011;5433;50.862;4.320;2023-03-16T02:20:47;4.60;;;2.25;;
10761;SDS011;5433;50.862;4.320;2023-03-16T02:23:15;5.25;;;2.28;;
10761;SDS011;5433;50.862;4.320;2023-03-16T02:28:20;6.57;;;1.85;;
10761;SDS011;5433;50.862;4.320;2023-03-16T02:30:50;3.30;;;1.85;;
10761;SDS011;5433;50.862;4.320;2023-03-16T02:33:16;4.60;;;2.00;;
10761;SDS011;5433;50.862;4.320;2023-03-16T02:35:42;3.83;;;2.15;;
10761;SDS011;5433;50.862;4.320;2023-03-16T02:38:08;3.80;;;1.80;;
10761;SDS011;5433;50.862;4.320;2023-03-16T02:40:35;3.65;;;1.75;;
10761;SDS011;5433;50.862;4.320;2023-03-16T02:43:06;3.47;;;1.80;;
10761;SDS011;5433;50.862;4.320;2023-03-16T02:45:38;4.47;;;2.13;;
10761;SDS011;5433;50.862;4.320;2023-03-16T02:48:08;3.72;;;1.77;;
10761;SDS011;5433;50.862;4.320;2023-03-16T02:50:41;2.72;;;1.75;;
10761;SDS011;5433;50.862;4.320;2023-03-16T02:53:07;3.17;;;1.90;;
10761;SDS011;5433;50.862;4.320;2023-03-16T02:55:33;4.80;;;2.10;;
10761;SDS011;5433;50.862;4.320;2023-03-16T02:57:59;5.70;;;2.10;;
10761;SDS011;5433;50.862;4.320;2023-03-16T03:00:25;4.93;;;2.05;;
10761;SDS011;5433;50.862;4.320;2023-03-16T03:02:51;6.05;;;2.20;;
10761;SDS011;5433;50.862;4.320;2023-03-16T03:05:17;6.35;;;2.00;;
10761;SDS011;5433;50.862;4.320;2023-03-16T03:07:43;3.53;;;2.00;;
10761;SDS011;5433;50.862;4.320;2023-03-16T03:10:09;3.30;;;2.00;;
10761;SDS011;5433;50.862;4.320;2023-03-16T03:12:35;6.10;;;2.05;;
10761;SDS011;5433;50.862;4.320;2023-03-16T03:15:02;3.53;;;1.90;;
10761;SDS011;5433;50.862;4.320;2023-03-16T03:17:28;5.13;;;2.00;;
10761;SDS011;5433;50.862;4.320;2023-03-16T03:19:55;3.58;;;1.98;;
10761;SDS011;5433;50.862;4.320;2023-03-16T03:22:21;4.47;;;1.90;;
10761;SDS011;5433;50.862;4.320;2023-03-16T03:24:47;5.18;;;2.00;;
10761;SDS011;5433;50.862;4.320;2023-03-16T03:27:13;4.78;;;2.13;;
10761;SDS011;5433;50.862;4.320;2023-03-16T03:29:39;4.50;;;2.17;;
10761;SDS011;5433;50.862;4.320;2023-03-16T03:32:05;4.15;;;1.90;;
10761;SDS011;5433;50.862;4.320;2023-03-16T03:34:32;7.88;;;2.20;;
10761;SDS011;5433;50.862;4.320;2023-03-16T03:36:58;3.80;;;2.10;;
10761;SDS011;5433;50.862;4.320;2023-03-16T03:39:25;5.38;;;2.13;;
10761;SDS011;5433;50.862;4.320;2023-03-16T03:41:51;6.22;;;2.22;;
10761;SDS011;5433;50.862;4.320;2023-03-16T03:44:19;3.85;;;2.00;;
10761;SDS011;5433;50.862;4.320;2023-03-16T03:46:46;4.40;;;1.83;;
10761;SDS011;5433;50.862;4.320;2023-03-16T03:49:13;3.20;;;1.98;;
10761;SDS011;5433;50.862;4.320;2023-03-16T03:51:39;3.40;;;1.67;;
10761;SDS011;5433;50.862;4.320;2023-03-16T03:54:05;4.50;;;2.00;;
10761;SDS011;5433;50.862;4.320;2023-03-16T03:56:31;4.60;;;2.00;;
10761;SDS011;5433;50.862;4.320;2023-03-16T03:58:57;3.88;;;1.80;;
10761;SDS011;5433;50.862;4.320;2023-03-16T04:01:23;3.38;;;1.75;;
10761;SDS011;5433;50.862;4.320;2023-03-16T04:03:49;2.85;;;1.58;;
10761;SDS011;5433;50.862;4.320;2023-03-16T04:06:15;4.78;;;1.70;;
10761;SDS011;5433;50.862;4.320;2023-03-16T04:08:42;4.43;;;2.00;;
10761;SDS011;5433;50.862;4.320;2023-03-16T04:11:08;4.35;;;1.88;;
10761;SDS011;5433;50.862;4.320;2023-03-16T04:13:35;4.60;;;1.90;;
10761;SDS011;5433;50.862;4.320;2023-03-16T04:16:01;2.65;;;1.70;;
10761;SDS011;5433;50.862;4.320;2023-03-16T04:18:28;4.80;;;1.70;;
10761;SDS011;5433;50.862;4.320;2023-03-16T04:20:54;7.13;;;1.83;;
10761;SDS011;5433;50.862;4.320;2023-03-16T04:23:20;3.60;;;1.75;;
10761;SDS011;5433;50.862;4.320;2023-03-16T04:25:48;3.40;;;1.50;;
10761;SDS011;5433;50.862;4.320;2023-03-16T04:28:15;4.30;;;1.77;;
10761;SDS011;5433;50.862;4.320;2023-03-16T04:30:41;4.53;;;1.90;;
10761;SDS011;5433;50.862;4.320;2023-03-16T04:33:08;4.35;;;1.70;;
10761;SDS011;5433;50.862;4.320;2023-03-16T04:35:34;4.55;;;1.80;;
10761;SDS011;5433;50.862;4.320;2023-03-16T04:38:00;3.15;;;1.50;;
10761;SDS011;5433;50.862;4.320;2023-03-16T04:40:26;4.30;;;1.63;;
10761;SDS011;5433;50.862;4.320;2023-03-16T04:42:54;3.85;;;1.67;;
10761;SDS011;5433;50.862;4.320;2023-03-16T04:45:20;3.08;;;1.60;;
10761;SDS011;5433;50.862;4.320;2023-03-16T04:47:46;5.63;;;1.80;;
10761;SDS011;5433;50.862;4.320;2023-03-16T04:50:13;3.25;;;1.55;;
10761;SDS011;5433;50.862;4.320;2023-03-16T04:52:39;3.15;;;1.67;;
10761;SDS011;5433;50.862;4.320;2023-03-16T04:55:06;2.30;;;1.55;;
10761;SDS011;5433;50.862;4.320;2023-03-16T04:57:32;3.03;;;1.70;;
10761;SDS011;5433;50.862;4.320;2023-03-16T04:59:59;2.95;;;1.60;;
10761;SDS011;5433;50.862;4.320;2023-03-16T05:02:25;3.80;;;1.63;;
10761;SDS011;5433;50.862;4.320;2023-03-16T05:04:51;2.63;;;1.70;;
10761;SDS011;5433;50.862;4.320;2023-03-16T05:07:17;4.03;;;1.80;;
10761;SDS011;5433;50.862;4.320;2023-03-16T05:09:43;3.97;;;1.70;;
10761;SDS011;5433;50.862;4.320;2023-03-16T05:12:10;2.47;;;1.52;;
10761;SDS011;5433;50.862;4.320;2023-03-16T05:14:36;4.65;;;1.80;;
10761;SDS011;5433;50.862;4.320;2023-03-16T05:17:02;3.13;;;1.65;;
10761;SDS011;5433;50.862;4.320;2023-03-16T05:19:28;4.13;;;1.70;;
10761;SDS011;5433;50.862;4.320;2023-03-16T05:21:55;3.05;;;1.48;;
10761;SDS011;5433;50.862;4.320;2023-03-16T05:24:21;2.42;;;1.45;;
10761;SDS011;5433;50.862;4.320;2023-03-16T05:26:47;2.35;;;1.50;;
10761;SDS011;5433;50.862;4.320;2023-03-16T05:29:14;2.83;;;1.50;;
10761;SDS011;5433;50.862;4.320;2023-03-16T05:31:40;5.00;;;1.55;;
10761;SDS011;5433;50.862;4.320;2023-03-16T05:34:06;4.28;;;1.65;;
10761;SDS011;5433;50.862;4.320;2023-03-16T05:36:32;3.17;;;1.45;;
10761;SDS011;5433;50.862;4.320;2023-03-16T05:39:00;2.70;;;1.60;;
10761;SDS011;5433;50.862;4.320;2023-03-16T05:41:26;2.95;;;1.70;;
10761;SDS011;5433;50.862;4.320;2023-03-16T05:43:52;4.00;;;1.63;;
10761;SDS011;5433;50.862;4.320;2023-03-16T05:46:18;3.05;;;1.45;;
10761;SDS011;5433;50.862;4.320;2023-03-16T05:48:44;3.05;;;1.70;;
10761;SDS011;5433;50.862;4.320;2023-03-16T05:51:10;4.85;;;1.58;;
10761;SDS011;5433;50.862;4.320;2023-03-16T05:53:38;4.60;;;1.70;;
10761;SDS011;5433;50.862;4.320;2023-03-16T05:56:04;4.38;;;1.60;;
10761;SDS011;5433;50.862;4.320;2023-03-16T05:58:30;4.85;;;1.70;;
10761;SDS011;5433;50.862;4.320;2023-03-16T06:00:58;4.30;;;1.70;;
10761;SDS011;5433;50.862;4.320;2023-03-16T06:03:25;3.95;;;1.40;;
10761;SDS011;5433;50.862;4.320;2023-03-16T06:05:51;3.47;;;1.50;;
10761;SDS011;5433;50.862;4.320;2023-03-16T06:08:17;3.42;;;1.65;;
10761;SDS011;5433;50.862;4.320;2023-03-16T06:10:45;5.65;;;1.77;;
10761;SDS011;5433;50.862;4.320;2023-03-16T06:13:12;2.90;;;1.40;;
10761;SDS011;5433;50.862;4.320;2023-03-16T06:15:38;5.80;;;1.67;;
10761;SDS011;5433;50.862;4.320;2023-03-16T06:18:04;3.25;;;1.50;;
10761;SDS011;5433;50.862;4.320;2023-03-16T06:20:30;2.60;;;1.50;;
10761;SDS011;5433;50.862;4.320;2023-03-16T06:22:56;2.88;;;1.50;;
10761;SDS011;5433;50.862;4.320;2023-03-16T06:25:22;3.92;;;1.50;;
10761;SDS011;5433;50.862;4.320;2023-03-16T06:27:48;3.95;;;1.55;;
10761;SDS011;5433;50.862;4.320;2023-03-16T06:30:14;4.88;;;1.60;;
10761;SDS011;5433;50.862;4.320;2023-03-16T06:32:40;4.22;;;1.65;;
10761;SDS011;5433;50.862;4.320;2023-03-16T06:35:07;2.50;;;1.40;;
10761;SDS011;5433;50.862;4.320;2023-03-16T06:37:33;3.45;;;1.42;;
10761;SDS011;5433;50.862;4.320;2023-03-16T06:39:59;4.13;;;1.23;;
10761;SDS011;5433;50.862;4.320;2023-03-16T06:42:25;3.90;;;1.50;;
10761;SDS011;5433;50.862;4.320;2023-03-16T06:44:51;3.97;;;1.35;;
10761;SDS011;5433;50.862;4.320;2023-03-16T06:47:18;4.57;;;1.80;;
10761;SDS011;5433;50.862;4.320;2023-03-16T06:49:44;2.53;;;1.60;;
10761;SDS011;5433;50.862;4.320;2023-03-16T06:52:11;4.75;;;1.75;;
10761;SDS011;5433;50.862;4.320;2023-03-16T06:54:37;4.15;;;1.50;;
10761;SDS011;5433;50.862;4.320;2023-03-16T06:57:04;4.65;;;1.63;;
10761;SDS011;5433;50.862;4.320;2023-03-16T06:59:30;4.40;;;1.60;;
10761;SDS011;5433;50.862;4.320;2023-03-16T07:01:56;3.42;;;1.67;;
10761;SDS011;5433;50.862;4.320;2023-03-16T07:04:22;3.35;;;1.60;;
10761;SDS011;5433;50.862;4.320;2023-03-16T07:06:48;4.68;;;1.67;;
10761;SDS011;5433;50.862;4.320;2023-03-16T07:09:14;4.38;;;1.55;;
10761;SDS011;5433;50.862;4.320;2023-03-16T07:11:40;3.75;;;1.60;;
10761;SDS011;5433;50.862;4.320;2023-03-16T07:14:06;5.53;;;1.50;;
10761;SDS011;5433;50.862;4.320;2023-03-16T07:16:32;4.28;;;1.65;;
10761;SDS011;5433;50.862;4.320;2023-03-16T07:18:58;5.03;;;1.60;;
10761;SDS011;5433;50.862;4.320;2023-03-16T07:21:24;2.50;;;1.77;;
10761;SDS011;5433;50.862;4.320;2023-03-16T07:23:50;4.80;;;1.55;;
10761;SDS011;5433;50.862;4.320;2023-03-16T07:26:16;3.15;;;1.70;;
10761;SDS011;5433;50.862;4.320;2023-03-16T07:28:42;3.95;;;1.70;;
10761;SDS011;5433;50.862;4.320;2023-03-16T07:31:09;8.63;;;1.77;;
10761;SDS011;5433;50.862;4.320;2023-03-16T07:33:35;4.55;;;1.67;;
10761;SDS011;5433;50.862;4.320;2023-03-16T07:36:01;3.40;;;1.42;;
10761;SDS011;5433;50.862;4.320;2023-03-16T07:38:30;5.82;;;1.77;;
10761;SDS011;5433;50.862;4.320;2023-03-16T07:40:57;5.00;;;1.77;;
10761;SDS011;5433;50.862;4.320;2023-03-16T07:43:23;4.38;;;1.92;;
10761;SDS011;5433;50.862;4.320;2023-03-16T07:45:49;3.92;;;1.70;;
10761;SDS011;5433;50.862;4.320;2023-03-16T07:48:16;2.83;;;1.60;;
10761;SDS011;5433;50.862;4.320;2023-03-16T07:50:42;3.20;;;1.60;;
10761;SDS011;5433;50.862;4.320;2023-03-16T07:53:09;2.55;;;1.50;;
10761;SDS011;5433;50.862;4.320;2023-03-16T07:55:35;6.57;;;2.00;;
10761;SDS011;5433;50.862;4.320;2023-03-16T07:58:02;5.57;;;2.03;;
10761;SDS011;5433;50.862;4.320;2023-03-16T08:00:30;4.15;;;1.60;;
10761;SDS011;5433;50.862;4.320;2023-03-16T08:02:56;3.78;;;1.50;;
10761;SDS011;5433;50.862;4.320;2023-03-16T08:05:22;2.67;;;1.60;;
10761;SDS011;5433;50.862;4.320;2023-03-16T08:07:48;5.03;;;1.77;;
10761;SDS011;5433;50.862;4.320;2023-03-16T08:10:18;2.17;;;1.52;;
10761;SDS011;5433;50.862;4.320;2023-03-16T08:12:45;4.70;;;1.60;;
10761;SDS011;5433;50.862;4.320;2023-03-16T08:15:11;2.55;;;1.30;;
10761;SDS011;5433;50.862;4.320;2023-03-16T08:17:37;3.33;;;1.40;;
10761;SDS011;5433;50.862;4.320;2023-03-16T08:20:06;4.38;;;1.58;;
10761;SDS011;5433;50.862;4.320;2023-03-16T08:22:34;4.07;;;1.58;;
10761;SDS011;5433;50.862;4.320;2023-03-16T08:25:04;5.20;;;1.48;;
10761;SDS011;5433;50.862;4.320;2023-03-16T08:27:31;9.13;;;1.70;;
10761;SDS011;5433;50.862;4.320;2023-03-16T08:29:57;4.57;;;1.38;;
10761;SDS011;5433;50.862;4.320;2023-03-16T08:32:29;4.80;;;1.60;;
10761;SDS011;5433;50.862;4.320;2023-03-16T08:34:55;2.90;;;1.60;;
10761;SDS011;5433;50.862;4.320;2023-03-16T08:37:21;4.18;;;1.58;;
10761;SDS011;5433;50.862;4.320;2023-03-16T08:39:48;5.88;;;1.38;;
10761;SDS011;5433;50.862;4.320;2023-03-16T08:42:15;3.92;;;1.50;;
10761;SDS011;5433;50.862;4.320;2023-03-16T08:44:41;4.03;;;1.52;;
10761;SDS011;5433;50.862;4.320;2023-03-16T08:47:08;3.50;;;1.52;;
10761;SDS011;5433;50.862;4.320;2023-03-16T08:49:35;3.13;;;1.35;;
10761;SDS011;5433;50.862;4.320;2023-03-16T08:52:02;3.95;;;1.25;;
10761;SDS011;5433;50.862;4.320;2023-03-16T08:54:29;2.30;;;1.50;;
10761;SDS011;5433;50.862;4.320;2023-03-16T08:56:56;2.45;;;1.48;;
10761;SDS011;5433;50.862;4.320;2023-03-16T08:59:22;3.45;;;1.38;;
10761;SDS011;5433;50.862;4.320;2023-03-16T09:01:48;4.88;;;1.40;;
10761;SDS011;5433;50.862;4.320;2023-03-16T09:04:14;4.20;;;1.45;;
10761;SDS011;5433;50.862;4.320;2023-03-16T09:06:40;3.60;;;1.48;;
10761;SDS011;5433;50.862;4.320;2023-03-16T09:09:06;3.67;;;1.50;;
10761;SDS011;5433;50.862;4.320;2023-03-16T09:11:33;2.42;;;1.27;;
10761;SDS011;5433;50.862;4.320;2023-03-16T09:14:00;4.68;;;1.77;;
10761;SDS011;5433;50.862;4.320;2023-03-16T09:16:26;2.75;;;1.42;;
10761;SDS011;5433;50.862;4.320;2023-03-16T09:18:54;3.10;;;1.30;;
10761;SDS011;5433;50.862;4.320;2023-03-16T09:21:20;2.83;;;1.40;;
10761;SDS011;5433;50.862;4.320;2023-03-16T09:23:52;4.60;;;1.33;;
10761;SDS011;5433;50.862;4.320;2023-03-16T09:26:23;1.95;;;1.10;;
10761;SDS011;5433;50.862;4.320;2023-03-16T09:28:59;3.20;;;1.30;;
10761;SDS011;5433;50.862;4.320;2023-03-16T09:31:26;3.30;;;1.20;;
10761;SDS011;5433;50.862;4.320;2023-03-16T09:33:52;2.22;;;1.33;;
10761;SDS011;5433;50.862;4.320;2023-03-16T09:36:18;4.15;;;1.33;;
10761;SDS011;5433;50.862;4.320;2023-03-16T09:38:44;5.72;;;1.55;;
10761;SDS011;5433;50.862;4.320;2023-03-16T09:44:16;3.33;;;1.10;;
10761;SDS011;5433;50.862;4.320;2023-03-16T09:46:46;5.15;;;1.52;;
10761;SDS011;5433;50.862;4.320;2023-03-16T09:49:18;2.00;;;1.30;;
10761;SDS011;5433;50.862;4.320;2023-03-16T09:54:19;2.20;;;1.20;;
10761;SDS011;5433;50.862;4.320;2023-03-16T09:56:47;2.22;;;0.90;;
10761;SDS011;5433;50.862;4.320;2023-03-16T09:59:15;2.03;;;1.40;;
10761;SDS011;5433;50.862;4.320;2023-03-16T10:02:04;2.28;;;1.02;;
10761;SDS011;5433;50.862;4.320;2023-03-16T10:10:19;2.28;;;0.95;;
10761;SDS011;5433;50.862;4.320;2023-03-16T10:12:48;1.70;;;0.90;;
10761;SDS011;5433;50.862;4.320;2023-03-16T10:15:21;1.70;;;0.80;;
10761;SDS011;5433;50.862;4.320;2023-03-16T10:17:53;1.65;;;0.90;;
10761;SDS011;5433;50.862;4.320;2023-03-16T10:20:21;3.47;;;1.05;;
10761;SDS011;5433;50.862;4.320;2023-03-16T10:22:48;1.23;;;0.88;;
10761;SDS011;5433;50.862;4.320;2023-03-16T10:25:34;2.53;;;0.93;;
10761;SDS011;5433;50.862;4.320;2023-03-16T10:28:03;2.53;;;1.00;;
10761;SDS011;5433;50.862;4.320;2023-03-16T10:30:33;2.47;;;1.02;;
10761;SDS011;5433;50.862;4.320;2023-03-16T10:33:45;2.80;;;0.88;;
10761;SDS011;5433;50.862;4.320;2023-03-16T10:43:44;2.25;;;0.90;;
10761;SDS011;5433;50.862;4.320;2023-03-16T10:46:11;2.83;;;1.13;;
10761;SDS011;5433;50.862;4.320;2023-03-16T10:48:37;2.97;;;1.20;;
10761;SDS011;5433;50.862;4.320;2023-03-16T10:51:10;1.30;;;0.90;;
10761;SDS011;5433;50.862;4.320;2023-03-16T10:53:37;2.78;;;1.17;;
10761;SDS011;5433;50.862;4.320;2023-03-16T10:56:17;2.00;;;1.00;;
10761;SDS011;5433;50.862;4.320;2023-03-16T10:58:44;3.33;;;1.10;;
10761;SDS011;5433;50.862;4.320;2023-03-16T11:01:21;2.42;;;1.02;;
10761;SDS011;5433;50.862;4.320;2023-03-16T11:03:49;2.08;;;1.02;;
10761;SDS011;5433;50.862;4.320;2023-03-16T11:06:20;3.92;;;1.27;;
10761;SDS011;5433;50.862;4.320;2023-03-16T11:08:48;6.10;;;1.00;;
10761;SDS011;5433;50.862;4.320;2023-03-16T11:11:17;2.22;;;1.10;;
10761;SDS011;5433;50.862;4.320;2023-03-16T11:13:45;3.65;;;1.00;;
10761;SDS011;5433;50.862;4.320;2023-03-16T11:16:23;2.08;;;1.20;;
10761;SDS011;5433;50.862;4.320;2023-03-16T11:18:51;2.35;;;1.10;;
10761;SDS011;5433;50.862;4.320;2023-03-16T11:21:26;1.50;;;1.10;;
10761;SDS011;5433;50.862;4.320;2023-03-16T11:23:56;1.00;;;0.90;;
10761;SDS011;5433;50.862;4.320;2023-03-16T11:26:25;3.15;;;1.00;;
10761;SDS011;5433;50.862;4.320;2023-03-16T11:29:01;5.18;;;1.10;;
10761;SDS011;5433;50.862;4.320;2023-03-16T11:31:44;4.85;;;1.30;;
10761;SDS011;5433;50.862;4.320;2023-03-16T11:34:29;2.90;;;0.98;;
10761;SDS011;5433;50.862;4.320;2023-03-16T11:36:56;1.70;;;0.90;;
10761;SDS011;5433;50.862;4.320;2023-03-16T11:49:50;1.77;;;0.85;;
10761;SDS011;5433;50.862;4.320;2023-03-16T11:52:23;2.55;;;0.90;;
10761;SDS011;5433;50.862;4.320;2023-03-16T11:55:00;1.33;;;0.90;;
10761;SDS011;5433;50.862;4.320;2023-03-16T12:05:19;2.22;;;1.00;;
10761;SDS011;5433;50.862;4.320;2023-03-16T12:10:31;1.85;;;1.13;;
10761;SDS011;5433;50.862;4.320;2023-03-16T12:15:45;2.10;;;1.00;;
10761;SDS011;5433;50.862;4.320;2023-03-16T12:18:17;2.20;;;0.95;;
10761;SDS011;5433;50.862;4.320;2023-03-16T12:20:47;2.40;;;1.00;;
10761;SDS011;5433;50.862;4.320;2023-03-16T12:23:36;2.05;;;1.00;;
10761;SDS011;5433;50.862;4.320;2023-03-16T12:26:01;2.05;;;1.10;;
10761;SDS011;5433;50.862;4.320;2023-03-16T12:28:28;1.42;;;0.90;;
10761;SDS011;5433;50.862;4.320;2023-03-16T12:33:27;2.97;;;1.10;;
10761;SDS011;5433;50.862;4.320;2023-03-16T12:36:21;1.77;;;0.88;;
10761;SDS011;5433;50.862;4.320;2023-03-16T12:38:56;2.50;;;0.90;;
10761;SDS011;5433;50.862;4.320;2023-03-16T12:41:32;2.55;;;0.90;;
10761;SDS011;5433;50.862;4.320;2023-03-16T12:49:16;2.35;;;0.90;;
10761;SDS011;5433;50.862;4.320;2023-03-16T12:51:43;2.63;;;0.90;;
10761;SDS011;5433;50.862;4.320;2023-03-16T12:54:20;3.15;;;1.40;;
10761;SDS011;5433;50.862;4.320;2023-03-16T12:56:47;1.77;;;1.08;;
10761;SDS011;5433;50.862;4.320;2023-03-16T12:59:18;1.95;;;1.13;;
10761;SDS011;5433;50.862;4.320;2023-03-16T13:01:47;1.75;;;1.00;;
10761;SDS011;5433;50.862;4.320;2023-03-16T13:04:17;3.90;;;1.10;;
10761;SDS011;5433;50.862;4.320;2023-03-16T13:06:45;1.70;;;1.05;;
10761;SDS011;5433;50.862;4.320;2023-03-16T13:09:16;2.50;;;1.00;;
10761;SDS011;5433;50.862;4.320;2023-03-16T13:11:43;2.75;;;1.00;;
10761;SDS011;5433;50.862;4.320;2023-03-16T13:14:15;2.53;;;0.93;;
10761;SDS011;5433;50.862;4.320;2023-03-16T13:16:41;1.80;;;0.90;;
10761;SDS011;5433;50.862;4.320;2023-03-16T13:21:45;2.95;;;1.00;;
10761;SDS011;5433;50.862;4.320;2023-03-16T13:24:13;1.50;;;0.90;;
10761;SDS011;5433;50.862;4.320;2023-03-16T13:26:46;2.55;;;1.10;;
10761;SDS011;5433;50.862;4.320;2023-03-16T13:29:19;2.17;;;0.90;;
10761;SDS011;5433;50.862;4.320;2023-03-16T13:31:45;1.20;;;0.88;;
10761;SDS011;5433;50.862;4.320;2023-03-16T13:34:13;1.48;;;1.08;;
10761;SDS011;5433;50.862;4.320;2023-03-16T13:36:39;3.75;;;1.00;;
10761;SDS011;5433;50.862;4.320;2023-03-16T13:39:17;2.45;;;1.20;;
10761;SDS011;5433;50.862;4.320;2023-03-16T13:41:53;2.83;;;1.00;;
10761;SDS011;5433;50.862;4.320;2023-03-16T13:44:20;3.75;;;1.00;;
10761;SDS011;5433;50.862;4.320;2023-03-16T13:46:47;1.58;;;1.02;;
10761;SDS011;5433;50.862;4.320;2023-03-16T13:49:17;3.33;;;1.48;;
10761;SDS011;5433;50.862;4.320;2023-03-16T13:51:43;5.70;;;3.05;;
10761;SDS011;5433;50.862;4.320;2023-03-16T13:54:21;1.88;;;1.48;;
10761;SDS011;5433;50.862;4.320;2023-03-16T13:56:48;4.63;;;1.40;;
10761;SDS011;5433;50.862;4.320;2023-03-16T13:59:14;2.03;;;1.17;;
10761;SDS011;5433;50.862;4.320;2023-03-16T14:01:42;0.98;;;0.82;;
10761;SDS011;5433;50.862;4.320;2023-03-16T14:04:09;1.13;;;1.02;;
10761;SDS011;5433;50.862;4.320;2023-03-16T14:06:49;4.30;;;1.60;;
10761;SDS011;5433;50.862;4.320;2023-03-16T14:09:16;3.78;;;1.70;;
10761;SDS011;5433;50.862;4.320;2023-03-16T14:11:44;3.75;;;1.25;;
10761;SDS011;5433;50.862;4.320;2023-03-16T14:14:13;2.17;;;1.00;;
10761;SDS011;5433;50.862;4.320;2023-03-16T14:16:40;1.60;;;1.08;;
10761;SDS011;5433;50.862;4.320;2023-03-16T14:19:16;2.80;;;1.10;;
10761;SDS011;5433;50.862;4.320;2023-03-16T14:21:46;1.70;;;1.20;;
10761;SDS011;5433;50.862;4.320;2023-03-16T14:24:27;2.17;;;0.90;;
10761;SDS011;5433;50.862;4.320;2023-03-16T14:26:56;1.00;;;0.80;;
10761;SDS011;5433;50.862;4.320;2023-03-16T14:29:26;1.20;;;0.90;;
10761;SDS011;5433;50.862;4.320;2023-03-16T14:31:54;2.45;;;1.02;;
10761;SDS011;5433;50.862;4.320;2023-03-16T14:37:16;3.42;;;1.17;;
10761;SDS011;5433;50.862;4.320;2023-03-16T14:39:43;4.60;;;1.30;;
10761;SDS011;5433;50.862;4.320;2023-03-16T14:45:08;3.38;;;1.40;;
10761;SDS011;5433;50.862;4.320;2023-03-16T14:47:40;3.03;;;1.50;;
10761;SDS011;5433;50.862;4.320;2023-03-16T14:50:28;2.38;;;1.40;;
10761;SDS011;5433;50.862;4.320;2023-03-16T14:52:53;3.00;;;1.52;;
10761;SDS011;5433;50.862;4.320;2023-03-16T14:55:20;2.63;;;1.48;;
10761;SDS011;5433;50.862;4.320;2023-03-16T14:57:48;1.92;;;1.08;;
10761;SDS011;5433;50.862;4.320;2023-03-16T15:00:15;2.33;;;1.05;;
10761;SDS011;5433;50.862;4.320;2023-03-16T15:02:43;1.00;;;0.90;;
10761;SDS011;5433;50.862;4.320;2023-03-16T15:05:14;2.95;;;0.93;;
10761;SDS011;5433;50.862;4.320;2023-03-16T15:07:43;2.03;;;1.13;;
10761;SDS011;5433;50.862;4.320;2023-03-16T15:12:39;2.28;;;1.05;;
10761;SDS011;5433;50.862;4.320;2023-03-16T15:15:14;3.60;;;0.90;;
10761;SDS011;5433;50.862;4.320;2023-03-16T15:17:42;2.83;;;1.10;;
10761;SDS011;5433;50.862;4.320;2023-03-16T15:20:12;1.75;;;0.93;;
10761;SDS011;5433;50.862;4.320;2023-03-16T15:22:39;1.50;;;1.20;;
10761;SDS011;5433;50.862;4.320;2023-03-16T15:25:30;3.40;;;1.20;;
10761;SDS011;5433;50.862;4.320;2023-03-16T15:27:52;1.92;;;1.00;;
10761;SDS011;5433;50.862;4.320;2023-03-16T15:30:23;2.58;;;1.35;;
10761;SDS011;5433;50.862;4.320;2023-03-16T15:32:49;1.60;;;1.00;;
10761;SDS011;5433;50.862;4.320;2023-03-16T15:35:15;1.63;;;1.00;;
10761;SDS011;5433;50.862;4.320;2023-03-16T15:37:42;2.55;;;1.17;;
10761;SDS011;5433;50.862;4.320;2023-03-16T15:40:15;3.92;;;1.00;;
10761;SDS011;5433;50.862;4.320;2023-03-16T15:42:42;3.75;;;1.00;;
10761;SDS011;5433;50.862;4.320;2023-03-16T15:45:12;1.67;;;0.88;;
10761;SDS011;5433;50.862;4.320;2023-03-16T15:47:39;3.58;;;1.23;;
10761;SDS011;5433;50.862;4.320;2023-03-16T15:50:07;1.48;;;0.82;;
10761;SDS011;5433;50.862;4.320;2023-03-16T15:52:34;2.22;;;1.20;;
10761;SDS011;5433;50.862;4.320;2023-03-16T15:55:02;2.58;;;1.02;;
10761;SDS011;5433;50.862;4.320;2023-03-16T15:57:32;2.88;;;1.00;;
10761;SDS011;5433;50.862;4.320;2023-03-16T15:59:58;1.80;;;0.75;;
10761;SDS011;5433;50.862;4.320;2023-03-16T16:02:27;1.20;;;1.00;;
10761;SDS011;5433;50.862;4.320;2023-03-16T16:04:53;3.92;;;1.00;;
10761;SDS011;5433;50.862;4.320;2023-03-16T16:07:20;3.40;;;1.13;;
10761;SDS011;5433;50.862;4.320;2023-03-16T16:09:46;4.05;;;1.25;;
10761;SDS011;5433;50.862;4.320;2023-03-16T16:12:12;1.80;;;1.15;;